Time;durP1;ratioP1;P1;durP2;ratioP2;P2;SDS_P1;SDS_P2;PMS_P1;PMS_P2;Temp;Humidity;BMP_temperature;BMP_pressure;BME280_temperature;BME280_humidity;BME280_pressure;Samples;Min_cycle;Max_cycle;Signal;HPM_P1;HPM_P2
2022/04/16 00:00:59;;;;;;;3.85;2.58;;;8.10;99.90;;;-146.41;100.00;57768.22;5009106;28;20069;-72
2022/04/16 00:03:27;;;;;;;4.38;2.60;;;8.10;99.90;;;-146.41;100.00;57768.22;5003414;28;20056;-73
2022/04/16 00:05:55;;;;;;;3.65;2.40;;;8.10;99.90;;;-146.41;100.00;57768.22;5008727;28;20050;-74
2022/04/16 00:08:25;;;;;;;3.75;2.63;;;8.10;99.90;;;-146.41;100.00;57768.22;5009215;28;20099;-74
2022/04/16 00:10:53;;;;;;;4.32;2.92;;;8.10;99.90;;;-146.41;100.00;57768.22;5005273;28;20166;-73
2022/04/16 00:13:21;;;;;;;4.07;2.53;;;8.10;99.90;;;-146.41;100.00;57768.22;5001485;28;20047;-74
2022/04/16 00:15:49;;;;;;;3.90;3.00;;;8.10;99.90;;;-146.41;100.00;57768.22;5005569;28;20073;-73
2022/04/16 00:18:18;;;;;;;5.13;2.97;;;8.10;99.90;;;-146.41;100.00;57768.22;5007198;28;20054;-72
2022/04/16 00:20:49;;;;;;;4.97;3.13;;;8.10;99.90;;;-146.41;100.00;57768.22;5003401;28;20084;-75
2022/04/16 00:23:20;;;;;;;3.72;2.55;;;8.00;99.90;;;-146.41;100.00;57768.22;5004655;28;20050;-74
2022/04/16 00:25:49;;;;;;;3.63;3.03;;;8.00;99.90;;;-146.41;100.00;57768.22;5004865;28;20050;-74
2022/04/16 00:28:16;;;;;;;4.40;2.97;;;8.00;99.90;;;-146.41;100.00;57768.22;5005394;28;20818;-74
2022/04/16 00:30:43;;;;;;;4.07;2.97;;;7.90;99.90;;;-146.41;100.00;57768.22;4979312;28;20058;-74
2022/04/16 00:33:15;;;;;;;5.38;3.40;;;7.90;99.90;;;-146.41;100.00;57768.22;5007062;28;20128;-75
2022/04/16 00:35:42;;;;;;;5.23;3.53;;;7.80;99.90;;;-146.41;100.00;57768.22;4991087;28;20042;-73
2022/04/16 00:38:11;;;;;;;5.75;3.10;;;7.70;99.90;;;-146.41;100.00;57768.22;5010161;28;20350;-74
2022/04/16 00:40:39;;;;;;;4.82;3.60;;;7.70;99.90;;;-146.41;100.00;57768.22;5003018;28;20508;-74
2022/04/16 00:43:06;;;;;;;5.47;3.30;;;7.70;99.90;;;-146.41;100.00;57768.22;5015315;28;20046;-74
2022/04/16 00:45:34;;;;;;;4.63;3.40;;;7.70;99.90;;;-146.41;100.00;57768.22;5018034;28;20127;-73
2022/04/16 00:48:01;;;;;;;6.22;3.83;;;7.60;99.90;;;-146.41;100.00;57768.22;4997832;28;20080;-74
2022/04/16 00:50:28;;;;;;;4.75;3.97;;;7.60;99.90;;;-146.41;100.00;57768.22;4997194;28;20141;-74
2022/04/16 00:52:56;;;;;;;5.07;3.92;;;7.50;99.90;;;-146.41;100.00;57768.22;5027993;28;20156;-74
2022/04/16 00:55:23;;;;;;;6.15;4.50;;;7.50;99.90;;;-146.41;100.00;57768.22;4998150;28;20058;-74
2022/04/16 00:57:51;;;;;;;8.18;3.80;;;7.40;99.90;;;-146.41;100.00;57768.22;5024919;28;20085;-74
2022/04/16 01:00:19;;;;;;;6.28;4.22;;;7.40;99.90;;;-146.41;100.00;57768.22;5001040;28;20050;-74
2022/04/16 01:02:47;;;;;;;4.38;3.70;;;7.30;99.90;;;-146.41;100.00;57768.22;5005283;28;20046;-74
2022/04/16 01:05:14;;;;;;;5.82;4.28;;;7.40;99.90;;;-146.41;100.00;57768.22;5002746;28;20413;-74
2022/04/16 01:07:59;;;;;;;6.60;3.63;;;7.40;99.90;;;-146.41;100.00;57768.22;5005175;28;20555;-73
2022/04/16 01:10:28;;;;;;;5.75;4.22;;;7.40;99.90;;;-146.41;100.00;57768.22;5005193;28;20104;-74
2022/04/16 01:13:07;;;;;;;5.72;3.55;;;7.30;99.90;;;-146.41;100.00;57768.22;5007893;28;20062;-74
2022/04/16 01:15:38;;;;;;;4.85;3.70;;;7.30;99.90;;;-146.41;100.00;57768.22;5004830;28;20057;-74
2022/04/16 01:18:07;;;;;;;5.38;3.67;;;7.30;99.90;;;-146.41;100.00;57768.22;4982984;28;20074;-74
2022/04/16 01:20:39;;;;;;;5.57;3.67;;;7.40;99.90;;;-146.41;100.00;57768.22;5004761;28;20073;-74
2022/04/16 01:23:07;;;;;;;6.43;3.72;;;7.40;99.90;;;-146.41;100.00;57768.22;5005446;28;20410;-74
2022/04/16 01:25:36;;;;;;;5.00;3.90;;;7.30;99.90;;;-146.41;100.00;57768.22;5005961;28;20136;-74
2022/04/16 01:28:04;;;;;;;6.70;3.80;;;7.30;99.90;;;-146.41;100.00;57768.22;5005069;28;20054;-72
2022/04/16 01:30:32;;;;;;;5.80;4.15;;;7.20;99.90;;;-146.41;100.00;57768.22;5009318;28;20453;-74
2022/04/16 01:32:59;;;;;;;4.63;3.83;;;7.00;99.90;;;-146.41;100.00;57768.22;5005502;28;20504;-74
2022/04/16 01:35:26;;;;;;;6.55;4.45;;;6.90;99.90;;;-146.41;100.00;57768.22;5003335;28;20049;-75
2022/04/16 01:37:54;;;;;;;5.18;3.70;;;7.00;99.90;;;-146.41;100.00;57768.22;5004349;28;20124;-73
2022/04/16 01:40:25;;;;;;;4.13;3.35;;;6.90;99.90;;;-146.41;100.00;57768.22;5002924;28;20043;-74
2022/04/16 01:42:56;;;;;;;6.15;4.35;;;6.90;99.90;;;-146.41;100.00;57768.22;5006369;28;20125;-74
2022/04/16 01:45:24;;;;;;;5.80;3.95;;;6.90;99.90;;;-146.41;100.00;57768.22;5004653;28;20476;-73
2022/04/16 01:47:51;;;;;;;5.13;3.45;;;6.90;99.90;;;-146.41;100.00;57768.22;4997203;28;20056;-74
2022/04/16 01:50:19;;;;;;;5.03;3.17;;;7.00;99.90;;;-146.41;100.00;57768.22;5001547;28;20128;-73
2022/04/16 01:52:47;;;;;;;5.57;4.43;;;7.00;99.90;;;-146.41;100.00;57768.22;5000590;28;20096;-74
2022/04/16 01:55:14;;;;;;;6.22;4.22;;;7.00;99.90;;;-146.41;100.00;57768.22;5000630;28;20135;-73
2022/04/16 01:57:42;;;;;;;6.85;4.57;;;7.00;99.90;;;-146.41;100.00;57768.22;5003679;28;20133;-71
2022/04/16 02:00:14;;;;;;;7.18;4.25;;;6.90;99.90;;;-146.41;100.00;57768.22;5004974;28;20153;-71
2022/04/16 02:02:42;;;;;;;5.40;3.85;;;6.80;99.90;;;-146.41;100.00;57768.22;5001776;28;20042;-73
2022/04/16 02:05:10;;;;;;;4.25;3.50;;;6.80;99.90;;;-146.41;100.00;57768.22;5002330;28;20046;-73
2022/04/16 02:07:39;;;;;;;4.75;3.90;;;6.80;99.90;;;-146.41;100.00;57768.22;5001350;28;20075;-72
2022/04/16 02:10:07;;;;;;;4.95;3.47;;;6.80;99.90;;;-146.41;100.00;57768.22;5004692;28;20052;-72
2022/04/16 02:12:38;;;;;;;5.43;3.72;;;6.80;99.90;;;-146.41;100.00;57768.22;5006663;28;20065;-72
2022/04/16 02:15:06;;;;;;;6.07;3.78;;;6.80;99.90;;;-146.41;100.00;57768.22;5003940;28;20104;-72
2022/04/16 02:17:37;;;;;;;5.53;4.38;;;6.70;99.90;;;-146.41;100.00;57768.22;5003122;28;20490;-72
2022/04/16 02:20:07;;;;;;;6.03;4.03;;;6.70;99.90;;;-146.41;100.00;57768.22;5002984;28;20100;-72
2022/04/16 02:22:45;;;;;;;8.40;4.40;;;6.80;99.90;;;-146.41;100.00;57768.22;5005295;28;20144;-73
2022/04/16 02:25:15;;;;;;;6.40;4.10;;;6.70;99.90;;;-146.41;100.00;57768.22;5006272;28;20131;-72
2022/04/16 02:27:42;;;;;;;6.47;4.03;;;6.70;99.90;;;-146.41;100.00;57768.22;5006829;28;20105;-73
2022/04/16 02:30:12;;;;;;;6.25;4.07;;;6.60;99.90;;;-146.41;100.00;57768.22;4998933;28;20126;-75
2022/04/16 02:32:48;;;;;;;6.30;4.65;;;6.70;99.90;;;-146.41;100.00;57768.22;5004296;28;20350;-73
2022/04/16 02:35:17;;;;;;;6.50;3.97;;;6.60;99.90;;;-146.41;100.00;57768.22;5006451;28;20593;-75
2022/04/16 02:37:44;;;;;;;6.53;4.60;;;6.50;99.90;;;-146.41;100.00;57768.22;5000442;28;20077;-72
2022/04/16 02:40:13;;;;;;;6.68;4.78;;;6.50;99.90;;;-146.41;100.00;57768.22;4999685;28;20539;-73
2022/04/16 02:42:42;;;;;;;6.90;4.65;;;6.40;99.90;;;-146.41;100.00;57768.22;4999262;28;20106;-72
2022/04/16 02:47:59;;;;;;;8.57;4.82;;;6.50;99.90;;;-146.41;100.00;57768.22;5003033;28;20185;-72
2022/04/16 02:50:27;;;;;;;6.05;4.00;;;6.40;99.90;;;-146.41;100.00;57768.22;5002644;28;20080;-71
2022/04/16 02:52:58;;;;;;;6.68;4.68;;;6.50;99.90;;;-146.41;100.00;57768.22;5001601;28;20054;-73
2022/04/16 02:55:26;;;;;;;8.52;5.15;;;6.50;99.90;;;-146.41;100.00;57768.22;5004228;28;20076;-73
2022/04/16 02:57:54;;;;;;;5.85;4.80;;;6.50;99.90;;;-146.41;100.00;57768.22;5006898;28;20449;-73
2022/04/16 03:00:21;;;;;;;7.53;5.38;;;6.50;99.90;;;-146.41;100.00;57768.22;5006048;28;20121;-73
2022/04/16 03:02:50;;;;;;;6.93;5.32;;;6.50;99.90;;;-146.41;100.00;57768.22;4998858;28;20531;-73
2022/04/16 03:05:17;;;;;;;6.65;5.50;;;6.50;99.90;;;-146.41;100.00;57768.22;5003758;28;20054;-72
2022/04/16 03:07:44;;;;;;;7.40;5.47;;;6.50;99.90;;;-146.41;100.00;57768.22;5002610;28;20058;-73
2022/04/16 03:10:12;;;;;;;8.30;5.80;;;6.50;99.90;;;-146.41;100.00;57768.22;5022923;28;20073;-72
2022/04/16 03:12:48;;;;;;;7.18;5.07;;;6.50;99.90;;;-146.41;100.00;57768.22;5008751;28;20096;-73
2022/04/16 03:18:03;;;;;;;6.72;5.60;;;6.50;99.90;;;-146.41;100.00;57768.22;5001980;28;20084;-75
2022/04/16 03:20:31;;;;;;;9.75;6.15;;;6.40;99.90;;;-146.41;100.00;57768.22;4998277;28;20046;-72
2022/04/16 03:22:59;;;;;;;9.90;6.40;;;6.50;99.90;;;-146.41;100.00;57768.22;4997586;28;20054;-72
2022/04/16 03:25:27;;;;;;;7.70;6.13;;;6.50;99.90;;;-146.41;100.00;57768.22;5000299;28;20105;-72
2022/04/16 03:27:57;;;;;;;9.27;6.53;;;;;;;-146.41;100.00;57768.22;4997817;28;20117;-73
2022/04/16 03:30:25;;;;;;;9.23;6.32;;;6.70;99.90;;;-146.41;100.00;57768.22;5008783;28;20468;-72
2022/04/16 03:32:53;;;;;;;10.90;7.07;;;6.50;99.90;;;-146.41;100.00;57768.22;5001030;28;20607;-72
2022/04/16 03:35:22;;;;;;;7.97;6.03;;;6.60;99.90;;;-146.41;100.00;57768.22;5002523;28;20046;-72
2022/04/16 03:37:50;;;;;;;9.15;6.95;;;6.60;99.90;;;-146.41;100.00;57768.22;5000873;28;20433;-73
2022/04/16 03:40:17;;;;;;;9.30;6.85;;;6.60;99.90;;;-146.41;100.00;57768.22;5002623;28;20046;-73
2022/04/16 03:42:50;;;;;;;8.73;6.32;;;6.60;99.90;;;-146.41;100.00;57768.22;4991118;28;20459;-73
2022/04/16 03:45:47;;;;;;;8.80;6.15;;;6.60;99.90;;;-146.41;100.00;57768.22;5010236;28;20085;-73
2022/04/16 03:48:15;;;;;;;10.13;6.18;;;6.60;99.90;;;-146.41;100.00;57768.22;4993527;28;21678;-73
2022/04/16 03:50:42;;;;;;;10.82;7.10;;;6.60;99.90;;;-146.41;100.00;57768.22;5002755;28;20050;-73
2022/04/16 03:53:09;;;;;;;11.05;6.88;;;6.60;99.90;;;-146.41;100.00;57768.22;5006526;28;20133;-72
2022/04/16 04:01:07;;;;;;;9.80;7.40;;;6.60;99.90;;;-146.41;100.00;57768.22;5007205;28;20107;-73
2022/04/16 04:03:36;;;;;;;11.88;6.95;;;6.60;99.90;;;-146.41;100.00;57768.22;5007010;28;20054;-73
2022/04/16 04:06:04;;;;;;;9.00;6.50;;;6.60;99.90;;;-146.41;100.00;57768.22;5003161;28;20121;-72
2022/04/16 04:08:33;;;;;;;9.32;6.25;;;6.60;99.90;;;-146.41;100.00;57768.22;4992476;28;20147;-72
2022/04/16 04:11:02;;;;;;;10.57;6.57;;;6.70;99.90;;;-146.41;100.00;57768.22;5004724;28;20050;-73
2022/04/16 04:13:29;;;;;;;11.27;6.80;;;6.70;99.90;;;-146.41;100.00;57768.22;5010662;28;20072;-73
2022/04/16 04:15:56;;;;;;;11.10;7.47;;;6.60;99.90;;;-146.41;100.00;57768.22;5002288;28;20050;-72
2022/04/16 04:18:24;;;;;;;13.43;8.10;;;6.70;99.90;;;-146.41;100.00;57768.22;4999452;28;20046;-73
2022/04/16 04:20:51;;;;;;;11.35;8.05;;;6.60;99.90;;;-146.41;100.00;57768.22;5000424;28;20456;-72
2022/04/16 04:23:21;;;;;;;11.07;7.95;;;6.70;99.90;;;-146.41;100.00;57768.22;5005804;28;20145;-73
2022/04/16 04:25:49;;;;;;;12.50;8.32;;;6.70;99.90;;;-146.41;100.00;57768.22;4999993;28;20116;-72
2022/04/16 04:28:17;;;;;;;11.38;7.70;;;6.70;99.90;;;-146.41;100.00;57768.22;4999604;28;20061;-73
2022/04/16 04:30:44;;;;;;;10.98;7.68;;;6.70;99.90;;;-146.41;100.00;57768.22;5003068;28;20191;-73
2022/04/16 04:33:12;;;;;;;9.85;7.03;;;6.70;99.90;;;-146.41;100.00;57768.22;5003457;28;20096;-72
2022/04/16 04:35:38;;;;;;;10.05;7.18;;;6.70;99.90;;;-146.41;100.00;57768.22;5003067;28;20093;-73
2022/04/16 04:38:06;;;;;;;11.65;8.07;;;6.70;99.90;;;-146.41;100.00;57768.22;5005292;28;20100;-73
2022/04/16 04:40:32;;;;;;;11.20;7.07;;;6.70;99.90;;;-146.41;100.00;57768.22;4998041;28;20085;-73
2022/04/16 04:42:59;;;;;;;11.20;7.60;;;6.70;99.90;;;-146.41;100.00;57768.22;5002670;28;20046;-73
2022/04/16 04:45:26;;;;;;;9.98;7.38;;;6.70;99.90;;;-146.41;100.00;57768.22;5004288;28;20133;-73
2022/04/16 04:47:54;;;;;;;12.77;7.80;;;6.70;99.90;;;-146.41;100.00;57768.22;5006462;28;20406;-73
2022/04/16 04:50:21;;;;;;;14.32;9.13;;;6.60;99.90;;;-146.41;100.00;57768.22;5008247;28;20103;-73
2022/04/16 04:52:48;;;;;;;10.30;7.70;;;6.60;99.90;;;-146.41;100.00;57768.22;5003483;28;20105;-72
2022/04/16 04:55:15;;;;;;;12.23;8.75;;;6.70;99.90;;;-146.41;100.00;57768.22;5010424;28;20081;-72
2022/04/16 04:57:42;;;;;;;15.63;8.50;;;6.70;99.90;;;-146.41;100.00;57768.22;5004498;28;20126;-72
2022/04/16 05:00:14;;;;;;;14.50;9.10;;;6.70;99.90;;;-146.41;100.00;57768.22;5003266;28;20073;-73
2022/04/16 05:02:45;;;;;;;11.85;8.13;;;6.70;99.90;;;-146.41;100.00;57768.22;5032088;28;20054;-73
2022/04/16 05:05:12;;;;;;;11.20;7.72;;;6.70;99.90;;;-146.41;100.00;57768.22;5008773;28;20153;-73
2022/04/16 05:07:40;;;;;;;12.20;8.10;;;6.60;99.90;;;-146.41;100.00;57768.22;5003176;28;20069;-73
2022/04/16 05:10:07;;;;;;;9.90;7.32;;;6.60;99.90;;;-146.41;100.00;57768.22;5004921;28;20149;-73
2022/04/16 05:12:35;;;;;;;12.70;8.30;;;6.60;99.90;;;-146.41;100.00;57768.22;5000679;28;20085;-74
2022/04/16 05:15:04;;;;;;;12.73;8.07;;;6.60;99.90;;;-146.41;100.00;57768.22;5007073;28;20089;-73
2022/04/16 05:17:31;;;;;;;10.63;8.02;;;6.70;99.90;;;-146.41;100.00;57768.22;5002792;28;20411;-71
2022/04/16 05:19:58;;;;;;;13.23;8.25;;;6.80;99.90;;;-146.41;100.00;57768.22;5020699;28;20082;-73
2022/04/16 05:22:25;;;;;;;11.52;8.48;;;6.90;99.90;;;-146.41;100.00;57768.22;5007570;28;20133;-73
2022/04/16 05:24:55;;;;;;;12.68;8.43;;;6.90;99.90;;;-146.41;100.00;57768.22;5004383;28;20149;-73
2022/04/16 05:27:22;;;;;;;11.80;7.90;;;7.00;99.90;;;-146.41;100.00;57768.22;5006614;28;20069;-72
2022/04/16 05:29:56;;;;;;;12.20;8.25;;;7.10;99.90;;;-146.41;100.00;57768.22;5006581;28;20140;-73
2022/04/16 05:32:31;;;;;;;12.27;8.32;;;7.10;99.90;;;-146.41;100.00;57768.22;5007790;28;20046;-73
2022/04/16 05:34:58;;;;;;;12.13;8.63;;;7.10;99.90;;;-146.41;100.00;57768.22;4988107;28;20058;-73
2022/04/16 05:37:25;;;;;;;16.92;10.52;;;7.10;99.90;;;-146.41;100.00;57768.22;5008499;28;20042;-72
2022/04/16 05:39:52;;;;;;;11.88;9.13;;;7.10;99.90;;;-146.41;100.00;57768.22;4993783;28;20129;-73
2022/04/16 05:42:19;;;;;;;15.07;9.75;;;7.20;99.90;;;-146.41;100.00;57768.22;4998525;28;20129;-73
2022/04/16 05:44:46;;;;;;;14.63;10.02;;;7.40;99.90;;;-146.41;100.00;57768.22;4996407;28;20058;-73
2022/04/16 05:47:14;;;;;;;14.00;9.80;;;7.40;99.90;;;-146.41;100.00;57768.22;4996738;28;20061;-72
2022/04/16 05:49:41;;;;;;;14.57;10.00;;;7.60;99.90;;;-146.41;100.00;57768.22;4998200;28;20065;-73
2022/04/16 05:52:09;;;;;;;14.65;9.85;;;7.70;99.90;;;-146.41;100.00;57768.22;5002038;28;20611;-72
2022/04/16 05:54:37;;;;;;;15.57;10.65;;;7.80;99.90;;;-146.41;100.00;57768.22;5001758;28;20153;-72
2022/04/16 05:57:06;;;;;;;16.90;10.88;;;7.90;99.90;;;-146.41;100.00;57768.22;5008446;28;20128;-72
2022/04/16 05:59:34;;;;;;;16.77;11.57;;;8.00;99.90;;;-146.41;100.00;57768.22;5000871;28;20080;-73
2022/04/16 06:02:03;;;;;;;17.05;11.85;;;8.00;99.90;;;-146.41;100.00;57768.22;5000507;28;20150;-71
2022/04/16 06:04:30;;;;;;;17.05;12.40;;;7.90;99.90;;;-146.41;100.00;57768.22;5002088;28;20109;-73
2022/04/16 06:06:57;;;;;;;15.93;10.80;;;7.90;99.90;;;-146.41;100.00;57768.22;5002843;28;20052;-73
2022/04/16 06:09:24;;;;;;;18.63;11.40;;;8.00;99.90;;;-146.41;100.00;57768.22;5005398;28;20530;-72
2022/04/16 06:11:52;;;;;;;16.98;11.35;;;8.10;99.90;;;-146.41;100.00;57768.22;5002231;28;20820;-73
2022/04/16 06:14:19;;;;;;;16.17;11.30;;;8.20;99.90;;;-146.41;100.00;57768.22;5005038;28;20714;-73
2022/04/16 06:16:46;;;;;;;18.83;11.50;;;8.20;99.90;;;-146.41;100.00;57768.22;5012057;28;20050;-73
2022/04/16 06:19:13;;;;;;;15.07;10.38;;;8.30;99.90;;;-146.41;100.00;57768.22;5008113;28;20058;-73
2022/04/16 06:21:40;;;;;;;13.82;9.98;;;8.30;99.90;;;-146.41;100.00;57768.22;5008486;28;20042;-73
2022/04/16 06:24:07;;;;;;;15.27;10.90;;;8.40;99.90;;;-146.41;100.00;57768.22;5001229;28;20146;-72
2022/04/16 06:26:35;;;;;;;16.75;10.57;;;8.50;99.90;;;-146.41;100.00;57768.22;5001931;28;20082;-73
2022/04/16 06:29:02;;;;;;;14.38;9.95;;;8.50;99.90;;;-146.41;100.00;57768.22;5005797;28;20092;-73
2022/04/16 06:31:30;;;;;;;12.93;9.18;;;8.70;99.90;;;-146.41;100.00;57768.22;5000691;28;20579;-72
2022/04/16 06:33:57;;;;;;;14.88;10.30;;;8.70;99.90;;;-146.41;100.00;57768.22;5003569;28;20108;-73
2022/04/16 06:36:24;;;;;;;15.82;10.10;;;8.80;99.90;;;-146.41;100.00;57768.22;5001459;28;20228;-73
2022/04/16 06:38:52;;;;;;;14.00;9.32;;;8.90;99.90;;;-146.41;100.00;57768.22;4997096;28;20126;-71
2022/04/16 06:41:19;;;;;;;13.93;9.30;;;9.00;99.90;;;-146.41;100.00;57768.22;5000068;28;20042;-74
2022/04/16 06:43:45;;;;;;;14.85;9.27;;;8.90;99.90;;;-146.41;100.00;57768.22;5000045;28;20445;-73
2022/04/16 06:46:12;;;;;;;12.93;9.27;;;9.00;99.90;;;-146.41;100.00;57768.22;4999491;28;20129;-73
2022/04/16 06:48:40;;;;;;;13.60;8.30;;;9.00;99.90;;;-146.41;100.00;57768.22;5002674;28;20061;-72
2022/04/16 06:51:07;;;;;;;11.98;8.63;;;9.00;99.90;;;-146.41;100.00;57768.22;5002794;28;20129;-73
2022/04/16 06:53:34;;;;;;;10.65;7.63;;;9.00;99.90;;;-146.41;100.00;57768.22;4998600;28;20050;-72
2022/04/16 06:56:01;;;;;;;11.38;7.22;;;9.20;99.90;;;-146.41;100.00;57768.22;4966165;28;20097;-73
2022/04/16 06:58:28;;;;;;;12.05;8.90;;;9.30;99.90;;;-146.41;100.00;57768.22;4997255;28;20136;-73
2022/04/16 07:00:56;;;;;;;12.45;8.35;;;9.40;99.90;;;-146.41;100.00;57768.22;4996217;28;20050;-73
2022/04/16 07:03:24;;;;;;;13.63;9.52;;;9.40;99.90;;;-146.41;100.00;57768.22;5005433;28;20432;-73
2022/04/16 07:05:50;;;;;;;15.65;8.80;;;9.40;99.90;;;-146.41;100.00;57768.22;4998647;28;20060;-72
2022/04/16 07:08:18;;;;;;;15.27;8.88;;;9.30;99.90;;;-146.41;100.00;57768.22;5002089;28;20483;-74
2022/04/16 07:10:52;;;;;;;11.15;7.82;;;9.50;99.90;;;-146.41;100.00;57768.22;4978753;28;20115;-73
2022/04/16 07:13:19;;;;;;;12.60;8.43;;;9.80;99.90;;;-146.41;100.00;57768.22;4998506;28;20134;-74
2022/04/16 07:15:46;;;;;;;12.43;7.97;;;10.00;99.90;;;-146.41;100.00;57768.22;4998038;28;20054;-73
2022/04/16 07:18:13;;;;;;;10.80;8.15;;;10.10;99.90;;;-146.41;100.00;57768.22;4998930;28;20149;-74
2022/04/16 07:20:42;;;;;;;12.25;7.80;;;10.10;99.90;;;-146.41;100.00;57768.22;5001871;28;20074;-73
2022/04/16 07:23:09;;;;;;;13.38;8.20;;;10.20;99.90;;;-146.41;100.00;57768.22;5002995;28;20421;-74
2022/04/16 07:25:36;;;;;;;11.50;7.95;;;10.20;99.90;;;-146.41;100.00;57768.22;5006027;28;20061;-74
2022/04/16 07:28:04;;;;;;;10.25;7.20;;;10.20;99.90;;;-146.41;100.00;57768.22;4999457;28;20054;-73
2022/04/16 07:30:31;;;;;;;11.05;7.25;;;10.40;99.90;;;-146.41;100.00;57768.22;5002282;28;20141;-73
2022/04/16 07:32:58;;;;;;;13.02;8.13;;;10.40;99.90;;;-146.41;100.00;57768.22;5002474;28;20085;-74
2022/04/16 07:35:29;;;;;;;10.82;6.55;;;10.40;99.90;;;-146.41;100.00;57768.22;4997101;28;20054;-72
2022/04/16 07:37:59;;;;;;;10.00;6.95;;;10.40;99.90;;;-146.41;100.00;57768.22;5003540;28;20132;-74
2022/04/16 07:40:26;;;;;;;9.43;6.38;;;10.60;99.90;;;-146.41;100.00;57768.22;4999921;28;20549;-73
2022/04/16 07:42:53;;;;;;;8.68;6.30;;;10.70;99.90;;;-146.41;100.00;57768.22;5001866;28;20106;-73
2022/04/16 07:45:23;;;;;;;8.10;6.00;;;10.80;99.90;;;-146.41;100.00;57768.22;4996095;28;20450;-73
2022/04/16 07:47:50;;;;;;;8.88;6.43;;;10.60;99.90;;;-146.41;100.00;57768.22;5004735;28;20054;-73
2022/04/16 07:50:17;;;;;;;12.02;5.80;;;10.80;99.90;;;-146.41;100.00;57768.22;4998194;28;20128;-74
2022/04/16 07:52:46;;;;;;;8.63;5.75;;;10.80;99.90;;;-146.41;100.00;57768.22;4985067;28;20141;-74
2022/04/16 07:55:15;;;;;;;9.85;6.45;;;11.20;99.90;;;-146.41;100.00;57768.22;5006344;28;20054;-74
2022/04/16 07:57:43;;;;;;;9.07;6.50;;;11.20;99.90;;;-146.41;100.00;57768.22;4999557;28;20046;-73
2022/04/16 08:00:11;;;;;;;9.13;6.10;;;11.10;99.90;;;-146.41;100.00;57768.22;5001802;28;20460;-73
2022/04/16 08:02:38;;;;;;;9.15;5.85;;;10.90;99.90;;;-146.41;100.00;57768.22;5001914;28;20113;-73
2022/04/16 08:05:06;;;;;;;9.57;5.00;;;10.80;99.90;;;-146.41;100.00;57768.22;4996928;28;20062;-73
2022/04/16 08:07:34;;;;;;;8.50;5.30;;;10.80;99.90;;;-146.41;100.00;57768.22;5001842;28;20540;-73
2022/04/16 08:10:01;;;;;;;8.30;5.85;;;10.80;99.90;;;-146.41;100.00;57768.22;4994544;28;20365;-73
2022/04/16 08:12:28;;;;;;;9.23;6.05;;;10.90;99.90;;;-146.41;100.00;57768.22;4999624;28;20078;-73
2022/04/16 08:14:55;;;;;;;7.63;5.03;;;10.80;99.90;;;-146.41;100.00;57768.22;5003638;28;20041;-73
2022/04/16 08:17:22;;;;;;;7.65;4.82;;;10.90;99.90;;;-146.41;100.00;57768.22;4997171;28;20153;-74
2022/04/16 08:19:49;;;;;;;8.30;5.53;;;11.10;99.90;;;-146.41;100.00;57768.22;4987251;28;20129;-73
2022/04/16 08:22:21;;;;;;;9.13;5.47;;;11.20;99.90;;;-146.41;100.00;57768.22;5000087;28;20084;-72
2022/04/16 08:27:36;;;;;;;6.85;3.92;;;11.10;99.90;;;-146.41;100.00;57768.22;5007117;28;20046;-73
2022/04/16 08:30:03;;;;;;;6.32;3.88;;;11.20;99.90;;;-146.41;100.00;57768.22;4985904;28;20128;-74
2022/04/16 08:32:35;;;;;;;8.32;4.32;;;11.30;99.90;;;-146.41;100.00;57768.22;4999948;28;20058;-73
2022/04/16 08:35:10;;;;;;;6.07;3.65;;;11.40;99.90;;;-146.41;100.00;57768.22;4982567;28;20504;-74
2022/04/16 08:37:38;;;;;;;4.22;2.63;;;;;;;-146.41;100.00;57768.22;4999041;28;20120;-72
2022/04/16 08:40:07;;;;;;;8.00;2.63;;;11.80;99.90;;;-146.41;100.00;57768.22;4999481;28;20074;-73
2022/04/16 08:42:36;;;;;;;4.03;2.13;;;11.80;99.90;;;-146.41;100.00;57768.22;5001627;28;20623;-72
2022/04/16 08:45:08;;;;;;;4.65;2.20;;;11.80;99.90;;;-146.41;100.00;57768.22;4991814;28;20069;-73
2022/04/16 08:47:36;;;;;;;3.58;2.05;;;12.00;99.90;;;-146.41;100.00;57768.22;4998061;28;20508;-73
2022/04/16 08:50:06;;;;;;;4.15;2.20;;;12.10;99.90;;;-146.41;100.00;57768.22;4999884;28;20132;-72
2022/04/16 08:52:37;;;;;;;4.50;1.85;;;12.10;99.90;;;-146.41;100.00;57768.22;5000150;28;20149;-75
2022/04/16 08:55:09;;;;;;;4.03;1.60;;;12.30;99.90;;;-146.41;100.00;57768.22;5003022;28;20145;-74
2022/04/16 08:57:39;;;;;;;10.60;1.48;;;12.10;99.90;;;-146.41;100.00;57768.22;5003533;28;20477;-74
2022/04/16 09:00:08;;;;;;;2.00;1.02;;;11.90;99.90;;;-146.41;100.00;57768.22;4995701;28;20056;-74
2022/04/16 09:02:35;;;;;;;2.45;1.20;;;12.10;99.90;;;-146.41;100.00;57768.22;5001638;28;20500;-74
2022/04/16 09:05:08;;;;;;;2.67;0.70;;;12.00;99.90;;;-146.41;100.00;57768.22;5007055;28;20070;-73
2022/04/16 09:07:51;;;;;;;2.55;1.13;;;12.10;99.90;;;-146.41;100.00;57768.22;5000263;28;20053;-73
2022/04/16 09:10:19;;;;;;;1.13;0.70;;;12.50;99.90;;;-146.41;100.00;57768.22;4999425;28;20042;-73
2022/04/16 09:12:51;;;;;;;1.60;0.82;;;12.50;99.90;;;-146.41;100.00;57768.22;5002155;28;20070;-73
2022/04/16 09:15:18;;;;;;;1.70;0.57;;;12.50;99.90;;;-146.41;100.00;57768.22;5003697;28;20053;-74
2022/04/16 09:18:04;;;;;;;7.30;0.70;;;12.70;99.90;;;-146.41;100.00;57768.22;4998997;28;20092;-73
2022/04/16 09:20:34;;;;;;;1.25;0.65;;;13.30;99.90;;;-146.41;100.00;57768.22;5000047;28;20136;-73
2022/04/16 09:23:15;;;;;;;6.55;0.60;;;13.20;99.90;;;-146.41;100.00;57768.22;5000347;28;20045;-72
2022/04/16 09:25:43;;;;;;;1.20;0.60;;;13.50;99.90;;;-146.41;100.00;57768.22;5003769;28;20163;-73
2022/04/16 09:28:13;;;;;;;1.15;0.57;;;14.00;99.90;;;-146.41;100.00;57768.22;5006425;28;20068;-73
2022/04/16 09:30:56;;;;;;;1.27;0.60;;;14.40;99.30;;;-146.41;100.00;57768.22;5003207;28;20435;-74
2022/04/16 09:33:24;;;;;;;1.30;0.77;;;15.00;98.60;;;-146.41;100.00;57768.22;5000406;28;20059;-73
2022/04/16 09:35:57;;;;;;;3.50;0.98;;;15.20;97.30;;;-146.41;100.00;57768.22;4999530;28;20054;-72
2022/04/16 09:38:30;;;;;;;2.20;0.70;;;14.40;97.90;;;-146.41;100.00;57768.22;4994851;28;20129;-73
2022/04/16 09:41:05;;;;;;;1.42;0.77;;;13.90;98.60;;;-146.41;100.00;57768.22;4983098;28;20122;-71
2022/04/16 09:43:36;;;;;;;2.17;1.10;;;13.60;99.40;;;-146.41;100.00;57768.22;4998065;28;20114;-74
2022/04/16 09:46:13;;;;;;;2.08;0.90;;;13.70;99.30;;;-146.41;100.00;57768.22;4998038;28;20575;-72
2022/04/16 09:48:42;;;;;;;1.85;0.95;;;13.80;99.90;;;-146.41;100.00;57768.22;4999178;28;20083;-73
2022/04/16 09:51:10;;;;;;;1.77;0.90;;;13.80;99.90;;;-146.41;100.00;57768.22;4997281;28;20153;-74
2022/04/16 09:53:37;;;;;;;3.20;1.33;;;13.80;99.90;;;-146.41;100.00;57768.22;5004659;28;20160;-73
2022/04/16 09:56:11;;;;;;;2.85;1.00;;;13.80;99.90;;;-146.41;100.00;57768.22;5002129;28;20104;-73
2022/04/16 09:58:40;;;;;;;2.38;1.00;;;13.60;99.60;;;-146.41;100.00;57768.22;5000628;28;20105;-74
2022/04/16 10:01:10;;;;;;;2.13;0.90;;;13.60;99.90;;;-146.41;100.00;57768.22;5000857;28;20042;-74
2022/04/16 10:03:38;;;;;;;2.33;1.10;;;13.70;99.40;;;-146.41;100.00;57768.22;4998365;28;20058;-73
2022/04/16 10:06:06;;;;;;;3.35;1.05;;;13.80;99.90;;;-146.41;100.00;57768.22;5001749;28;20074;-74
2022/04/16 10:08:35;;;;;;;2.10;1.00;;;13.90;99.90;;;-146.41;100.00;57768.22;5000623;28;20058;-73
2022/04/16 10:11:04;;;;;;;2.05;1.00;;;14.00;98.70;;;-146.41;100.00;57768.22;4998807;28;20045;-73
2022/04/16 10:13:39;;;;;;;1.80;1.08;;;13.70;98.30;;;-146.41;100.00;57768.22;5003062;28;20049;-73
2022/04/16 10:16:45;;;;;;;1.00;0.70;;;14.40;99.70;;;-146.41;100.00;57768.22;4998555;28;20089;-74
2022/04/16 10:19:16;;;;;;;1.33;0.70;;;15.10;97.50;;;-146.41;100.00;57768.22;4988068;28;20089;-73
2022/04/16 10:21:43;;;;;;;1.20;0.70;;;15.10;95.20;;;-146.41;100.00;57768.22;4997437;28;20077;-74
2022/04/16 10:24:11;;;;;;;1.50;0.70;;;15.70;95.80;;;-146.41;100.00;57768.22;4996428;28;20085;-72